createdAt,value
2018-03-17T00:01:56.568Z,6.60
2018-03-17T00:04:47.307Z,6.23
2018-03-17T00:07:16.347Z,8.60
2018-03-17T00:09:46.295Z,7.07
2018-03-17T00:12:15.338Z,6.55
2018-03-17T00:14:45.274Z,7.10
2018-03-17T00:17:14.666Z,9.50
2018-03-17T00:19:46.830Z,10.17
2018-03-17T00:22:15.893Z,10.20
2018-03-17T00:24:46.918Z,7.63
2018-03-17T00:27:29.447Z,9.60
2018-03-17T00:29:58.462Z,7.43
2018-03-17T00:32:27.758Z,9.32
2018-03-17T00:34:56.791Z,7.50
2018-03-17T00:37:25.882Z,9.15
2018-03-17T00:39:54.934Z,7.27
2018-03-17T00:42:34.571Z,10.30
2018-03-17T00:45:03.620Z,10.55
2018-03-17T00:47:32.658Z,7.80
2018-03-17T00:50:01.747Z,9.70
2018-03-17T00:52:32.935Z,7.37
2018-03-17T00:55:01.992Z,10.73
2018-03-17T00:57:38.854Z,11.70
2018-03-17T01:00:08.078Z,8.50
2018-03-17T01:02:37.107Z,10.98
2018-03-17T01:05:06.158Z,8.80
2018-03-17T01:07:35.245Z,9.80
2018-03-17T01:10:04.510Z,7.20
2018-03-17T01:12:33.551Z,7.75
2018-03-17T01:17:38.311Z,8.10
2018-03-17T01:20:08.276Z,7.40
2018-03-17T01:22:49.495Z,8.90
2018-03-17T01:25:18.542Z,7.07
2018-03-17T01:29:52.916Z,10.03
2018-03-17T01:32:22.062Z,12.13
2018-03-17T01:34:55.259Z,10.00
2018-03-17T01:37:24.603Z,12.48
2018-03-17T01:39:54.539Z,10.20
2018-03-17T01:42:23.600Z,12.23
2018-03-17T01:44:54.563Z,11.27
2018-03-17T01:47:23.610Z,8.90
2018-03-17T01:49:54.558Z,9.23
2018-03-17T01:52:23.598Z,9.90
2018-03-17T01:54:52.635Z,9.00
2018-03-17T01:57:21.688Z,11.05
2018-03-17T01:59:59.239Z,9.00
2018-03-17T02:02:41.118Z,11.57
2018-03-17T02:05:10.166Z,9.23
2018-03-17T02:07:47.187Z,10.63
2018-03-17T02:10:16.270Z,8.37
2018-03-17T02:12:53.072Z,10.20
2018-03-17T02:15:22.164Z,9.60
2018-03-17T02:20:41.325Z,9.60
2018-03-17T02:23:10.432Z,10.18
2018-03-17T02:28:24.145Z,9.10
2018-03-17T02:31:07.179Z,11.00
2018-03-17T02:36:15.391Z,12.20
2018-03-17T02:38:45.435Z,9.37
2018-03-17T02:41:14.643Z,11.95
2018-03-17T02:46:19.317Z,10.25
2018-03-17T02:48:48.691Z,8.20
2018-03-17T02:51:17.718Z,8.60
2018-03-17T02:53:46.751Z,9.80
2018-03-17T02:56:15.955Z,9.25
2018-03-17T03:01:23.186Z,9.43
2018-03-17T03:03:53.157Z,7.60
2018-03-17T03:06:22.289Z,9.25
2018-03-17T03:08:53.254Z,9.10
2018-03-17T03:11:22.294Z,9.27
2018-03-17T03:14:01.230Z,9.40
2018-03-17T03:19:09.540Z,9.80
2018-03-17T03:21:40.526Z,8.33
2018-03-17T03:24:09.562Z,9.45
2018-03-17T03:26:38.612Z,8.23
2018-03-17T03:29:08.590Z,9.68
2018-03-17T03:31:37.635Z,7.77
2018-03-17T03:34:07.610Z,9.93
2018-03-17T03:36:44.715Z,9.48
2018-03-17T03:39:13.858Z,7.43
2018-03-17T03:41:44.876Z,8.93
2018-03-17T03:44:13.940Z,7.33
2018-03-17T03:46:54.815Z,10.38
2018-03-17T03:49:23.839Z,8.20
2018-03-17T03:51:56.752Z,10.07
2018-03-17T03:54:25.812Z,10.82
2018-03-17T03:56:57.461Z,10.03
2018-03-17T03:59:26.500Z,8.30
2018-03-17T04:01:59.551Z,10.52
2018-03-17T04:07:06.864Z,10.15
2018-03-17T04:09:36.120Z,10.82
2018-03-17T04:12:05.160Z,8.60
2018-03-17T04:14:34.204Z,9.57
2018-03-17T04:17:10.627Z,12.10
2018-03-17T04:19:39.751Z,10.40
2018-03-17T04:24:45.550Z,12.10
2018-03-17T04:27:16.548Z,12.45
2018-03-17T04:29:45.603Z,10.67
2018-03-17T04:32:29.117Z,14.20
2018-03-17T04:34:59.074Z,13.13
2018-03-17T04:40:05.295Z,11.85
2018-03-17T04:42:34.348Z,12.50
2018-03-17T04:45:03.390Z,9.80
2018-03-17T04:47:32.435Z,13.32
2018-03-17T04:50:01.484Z,13.68
2018-03-17T04:52:30.528Z,11.00
2018-03-17T04:54:59.692Z,13.90
2018-03-17T04:57:29.644Z,12.77
2018-03-17T05:02:34.637Z,16.05
2018-03-17T05:05:04.599Z,11.70
2018-03-17T05:07:33.725Z,14.00
2018-03-17T05:10:06.688Z,13.60
2018-03-17T05:12:35.731Z,11.50
2018-03-17T05:15:05.183Z,12.85
2018-03-17T05:17:34.218Z,10.67
2018-03-17T05:22:39.095Z,15.30
2018-03-17T05:25:08.147Z,15.50
2018-03-17T05:27:38.268Z,12.67
2018-03-17T05:30:07.485Z,14.30
2018-03-17T05:32:36.672Z,9.73
2018-03-17T05:37:47.360Z,13.60
2018-03-17T05:40:22.336Z,9.67
2018-03-17T05:42:52.177Z,11.50
2018-03-17T05:45:21.385Z,11.75
2018-03-17T05:50:32.602Z,12.80
2018-03-17T05:53:05.554Z,11.33
2018-03-17T05:55:34.620Z,15.07
2018-03-17T05:58:04.067Z,12.57
2018-03-17T06:00:33.123Z,15.57
2018-03-17T06:03:02.176Z,16.40
2018-03-17T06:05:31.462Z,16.45
2018-03-17T06:10:37.956Z,14.98
2018-03-17T06:21:02.591Z,15.70
2018-03-17T06:23:31.684Z,11.63
2018-03-17T06:26:00.950Z,13.13
2018-03-17T06:28:30.001Z,12.60
2018-03-17T06:31:08.415Z,13.82
2018-03-17T06:33:37.584Z,12.13
2018-03-17T06:36:06.624Z,10.30
2018-03-17T06:38:36.402Z,13.48
2018-03-17T06:43:42.658Z,13.80
2018-03-17T06:46:19.494Z,14.20
2018-03-17T06:48:49.069Z,10.20
2018-03-17T06:51:18.110Z,9.67
2018-03-17T06:53:47.394Z,11.40
2018-03-17T06:58:52.560Z,13.90
2018-03-17T07:01:22.579Z,14.00
2018-03-17T07:03:51.623Z,12.03
2018-03-17T07:08:56.585Z,13.90
2018-03-17T07:11:33.818Z,17.98
2018-03-17T07:14:03.308Z,14.60
2018-03-17T07:16:32.371Z,14.50
2018-03-17T07:24:12.227Z,26.15
2018-03-17T07:26:43.906Z,20.93
2018-03-17T07:29:13.000Z,26.33
2018-03-17T07:31:42.063Z,26.47
2018-03-17T07:34:11.389Z,34.70
2018-03-17T07:36:40.468Z,32.33
2018-03-17T07:39:10.135Z,26.00
2018-03-17T07:41:39.192Z,24.30
2018-03-17T07:44:08.239Z,25.03
2018-03-17T07:46:37.644Z,28.80
2018-03-17T07:49:06.699Z,24.40
2018-03-17T07:51:36.228Z,23.87
2018-03-17T07:54:05.267Z,21.27
2018-03-17T07:56:34.328Z,24.90
2018-03-17T07:59:03.404Z,36.50
2018-03-17T08:01:32.428Z,28.40
2018-03-17T08:09:19.032Z,36.63
2018-03-17T08:11:51.763Z,27.07
2018-03-17T08:14:22.293Z,25.60
2018-03-17T08:16:51.330Z,24.00
2018-03-17T08:19:20.388Z,25.43
2018-03-17T08:24:25.067Z,30.62
2018-03-17T08:26:54.113Z,33.67
2018-03-17T08:29:23.166Z,28.70
2018-03-17T08:31:52.220Z,27.07
2018-03-17T08:34:21.254Z,35.38
2018-03-17T08:36:50.586Z,26.47
2018-03-17T08:39:19.682Z,34.30
2018-03-17T08:41:49.661Z,26.97
2018-03-17T08:44:18.738Z,26.87
2018-03-17T08:46:47.999Z,26.77
2018-03-17T08:49:17.134Z,25.27
2018-03-17T08:51:46.168Z,23.80
2018-03-17T08:54:16.038Z,26.70
2018-03-17T08:56:46.067Z,35.08
2018-03-17T08:59:17.252Z,29.50
2018-03-17T09:01:50.011Z,30.00
2018-03-17T09:04:20.252Z,37.20
2018-03-17T09:06:50.191Z,39.00
2018-03-17T09:09:19.242Z,31.23
2018-03-17T09:11:50.334Z,31.80
2018-03-17T09:14:19.383Z,28.57
2018-03-17T09:16:52.800Z,29.13
2018-03-17T09:19:22.755Z,28.27
2018-03-17T09:24:28.580Z,33.33
2018-03-17T09:29:36.957Z,31.90
2018-03-17T09:32:06.878Z,27.10
2018-03-17T09:34:35.926Z,21.97
2018-03-17T09:37:05.205Z,21.60
2018-03-17T09:39:34.243Z,25.93
2018-03-17T09:44:38.478Z,27.77
2018-03-17T09:47:08.538Z,28.77
2018-03-17T09:49:37.584Z,23.13
2018-03-17T09:52:06.668Z,27.62
2018-03-17T09:54:38.849Z,23.60
2018-03-17T09:57:07.920Z,21.50
2018-03-17T10:02:12.343Z,27.52
2018-03-17T10:07:16.670Z,24.85
2018-03-17T10:09:45.785Z,26.08
2018-03-17T10:12:16.296Z,21.43
2018-03-17T10:14:45.974Z,20.30
2018-03-17T10:17:15.175Z,20.63
2018-03-17T10:19:46.214Z,18.90
2018-03-17T10:22:15.264Z,20.07
2018-03-17T10:24:44.540Z,19.43
2018-03-17T10:27:13.772Z,19.00
2018-03-17T10:29:43.118Z,19.93
2018-03-17T10:32:12.227Z,19.60
2018-03-17T10:34:41.301Z,21.43
2018-03-17T10:37:10.349Z,21.50
2018-03-17T10:39:39.390Z,21.47
2018-03-17T10:42:08.795Z,24.37
2018-03-17T10:44:37.861Z,28.87
2018-03-17T10:49:45.919Z,32.97
2018-03-17T10:52:14.955Z,32.92
2018-03-17T10:54:44.004Z,25.17
2018-03-17T10:57:16.835Z,25.63
2018-03-17T10:59:47.210Z,24.80
2018-03-17T11:02:17.257Z,27.20
2018-03-17T11:04:46.240Z,25.10
2018-03-17T11:07:16.703Z,25.10
2018-03-17T11:09:45.783Z,34.75
2018-03-17T11:12:14.852Z,30.20
2018-03-17T11:14:44.199Z,34.63
2018-03-17T11:17:13.287Z,29.67
2018-03-17T11:19:42.335Z,27.90
2018-03-17T11:22:12.320Z,28.13
2018-03-17T11:24:41.542Z,26.90
2018-03-17T11:27:10.575Z,27.87
2018-03-17T11:29:40.006Z,28.33
2018-03-17T11:32:09.434Z,27.30
2018-03-17T11:34:38.487Z,38.88
2018-03-17T11:37:08.571Z,32.37
2018-03-17T11:39:37.788Z,31.10
2018-03-17T11:42:06.844Z,33.67
2018-03-17T11:44:36.779Z,31.43
2018-03-17T11:47:07.975Z,41.63
2018-03-17T11:49:37.064Z,33.67
2018-03-17T11:52:06.105Z,33.07
2018-03-17T11:54:36.764Z,28.63
2018-03-17T11:57:05.852Z,40.28
2018-03-17T11:59:34.914Z,31.00
2018-03-17T12:02:05.339Z,30.97
2018-03-17T12:04:44.150Z,29.10
2018-03-17T12:09:58.339Z,41.70
2018-03-17T12:12:30.203Z,35.07
2018-03-17T12:15:00.703Z,33.90
2018-03-17T12:17:38.835Z,32.80
2018-03-17T12:20:08.294Z,30.10
2018-03-17T12:22:39.306Z,38.83
2018-03-17T12:25:10.322Z,35.47
2018-03-17T12:27:47.744Z,31.80
2018-03-17T12:30:20.944Z,30.97
2018-03-17T12:32:50.028Z,39.90
2018-03-17T12:35:22.177Z,33.00
2018-03-17T12:37:51.736Z,31.53
2018-03-17T12:42:56.062Z,38.30
2018-03-17T12:45:33.638Z,37.72
2018-03-17T12:48:02.912Z,30.53
2018-03-17T12:50:44.006Z,27.70
2018-03-17T12:53:21.174Z,26.80
2018-03-17T12:55:58.668Z,27.97
2018-03-17T12:58:36.882Z,29.13
2018-03-17T13:01:16.164Z,36.10
2018-03-17T13:03:54.226Z,29.93
2018-03-17T13:06:32.651Z,38.53
2018-03-17T13:09:10.587Z,28.47
2018-03-17T13:11:47.508Z,28.30
2018-03-17T13:14:23.913Z,36.90
2018-03-17T13:17:01.608Z,28.97
2018-03-17T13:22:17.300Z,35.60
2018-03-17T13:24:57.099Z,37.23
2018-03-17T13:27:49.302Z,27.87
2018-03-17T13:30:26.744Z,24.80
2018-03-17T13:33:08.115Z,24.17
2018-03-17T13:36:00.248Z,24.67
2018-03-17T13:38:37.790Z,24.90
2018-03-17T13:43:52.371Z,35.03
2018-03-17T13:46:31.379Z,29.47
2018-03-17T13:49:07.882Z,29.20
2018-03-17T13:51:49.739Z,28.07
2018-03-17T13:54:29.667Z,27.60
2018-03-17T13:57:09.882Z,27.37
2018-03-17T13:59:47.976Z,28.93
2018-03-17T14:02:27.637Z,29.50
2018-03-17T14:07:46.297Z,34.35
2018-03-17T14:10:24.039Z,29.63
2018-03-17T14:13:00.390Z,25.20
2018-03-17T14:15:35.644Z,27.27
2018-03-17T14:18:04.710Z,27.07
2018-03-17T14:20:36.089Z,26.97
2018-03-17T14:23:05.211Z,33.20
2018-03-17T14:25:36.159Z,27.17
2018-03-17T14:28:05.204Z,28.00
2018-03-17T14:30:34.251Z,27.17
2018-03-17T14:33:04.387Z,25.63
2018-03-17T14:35:39.298Z,31.50
2018-03-17T14:38:08.518Z,27.60
2018-03-17T14:40:37.618Z,25.33
2018-03-17T14:43:06.686Z,25.10
2018-03-17T14:45:43.700Z,31.65
2018-03-17T14:48:12.751Z,28.23
2018-03-17T14:53:21.242Z,31.87
2018-03-17T14:55:57.295Z,35.03
2018-03-17T14:58:30.019Z,35.33
2018-03-17T15:01:06.909Z,31.77
2018-03-17T15:03:43.102Z,39.00
2018-03-17T15:06:15.242Z,28.23
2018-03-17T15:08:47.100Z,30.60
2018-03-17T15:11:18.449Z,25.53
2018-03-17T15:13:52.929Z,30.55
2018-03-17T15:16:24.457Z,32.80
2018-03-17T15:24:14.321Z,31.17
2018-03-17T15:26:46.498Z,29.33
2018-03-17T15:29:15.621Z,26.17
2018-03-17T15:31:44.695Z,32.67
2018-03-17T15:36:53.469Z,31.98
2018-03-17T15:42:03.790Z,29.58
2018-03-17T15:44:36.786Z,28.52
2018-03-17T15:47:09.433Z,24.17
2018-03-17T15:49:39.127Z,25.17
2018-03-17T15:52:08.172Z,40.73
2018-03-17T15:54:38.439Z,24.07
2018-03-17T15:59:48.105Z,29.92
2018-03-17T16:02:21.342Z,31.93
2018-03-17T16:04:56.251Z,25.23
2018-03-17T16:07:25.552Z,23.30
2018-03-17T16:09:55.835Z,22.57
2018-03-17T16:12:24.939Z,20.33
2018-03-17T16:14:55.773Z,25.20
2018-03-17T16:17:29.749Z,22.37
2018-03-17T16:20:06.366Z,26.87
2018-03-17T16:22:36.461Z,23.00
2018-03-17T16:25:13.318Z,26.42
2018-03-17T16:27:45.512Z,23.93
2018-03-17T16:30:14.567Z,27.87
2018-03-17T16:35:21.010Z,28.12
2018-03-17T16:37:50.975Z,23.63
2018-03-17T16:40:23.914Z,26.65
2018-03-17T16:42:53.175Z,22.67
2018-03-17T16:45:25.474Z,26.92
2018-03-17T16:48:10.071Z,23.83
2018-03-17T16:50:40.080Z,29.03
2018-03-17T16:53:09.153Z,22.70
2018-03-17T16:55:38.439Z,21.77
2018-03-17T16:58:12.240Z,21.00
2018-03-17T17:00:41.632Z,25.25
2018-03-17T17:05:49.239Z,27.65
2018-03-17T17:10:56.063Z,27.10
2018-03-17T17:13:29.699Z,27.85
2018-03-17T17:15:59.887Z,26.00
2018-03-17T17:18:31.199Z,26.50
2018-03-17T17:21:01.272Z,27.55
2018-03-17T17:26:05.511Z,28.35
2018-03-17T17:28:36.391Z,21.90
2018-03-17T17:31:06.735Z,27.85
2018-03-17T17:33:35.811Z,22.87
2018-03-17T17:36:09.137Z,25.70
2018-03-17T17:38:38.208Z,24.03
2018-03-17T17:41:07.391Z,27.87
2018-03-17T17:43:36.828Z,28.15
2018-03-17T17:46:06.040Z,27.27
2018-03-17T17:48:35.180Z,28.23
2018-03-17T17:51:04.371Z,23.67
2018-03-17T17:53:52.139Z,30.30
2018-03-17T17:56:29.109Z,24.07
2018-03-17T17:58:58.267Z,26.87
2018-03-17T18:04:06.354Z,29.97
2018-03-17T18:06:35.997Z,26.10
2018-03-17T18:09:09.095Z,28.50
2018-03-17T18:11:38.163Z,23.00
2018-03-17T18:14:08.776Z,29.05
2018-03-17T18:16:37.856Z,31.10
2018-03-17T18:19:14.029Z,30.62
2018-03-17T18:21:48.376Z,28.17
2018-03-17T18:24:17.410Z,31.62
2018-03-17T18:26:56.667Z,26.40
2018-03-17T18:29:25.778Z,32.15
2018-03-17T18:34:31.896Z,31.67
2018-03-17T18:37:10.026Z,27.40
2018-03-17T18:39:41.940Z,30.67
2018-03-17T18:42:19.407Z,26.43
2018-03-17T18:44:48.542Z,31.15
2018-03-17T18:47:19.836Z,25.30
2018-03-17T18:49:54.586Z,33.13
2018-03-17T18:52:26.796Z,28.37
2018-03-17T18:54:55.843Z,31.77
2018-03-17T18:57:25.696Z,28.00
2018-03-17T18:59:58.015Z,32.30
2018-03-17T19:05:06.934Z,32.58
2018-03-17T19:07:39.878Z,28.07
2018-03-17T19:10:11.330Z,31.12
2018-03-17T19:12:41.593Z,34.23
2018-03-17T19:15:11.477Z,29.57
2018-03-17T19:17:41.495Z,33.25
2018-03-17T19:20:10.794Z,29.87
2018-03-17T19:22:39.871Z,42.62
2018-03-17T19:25:08.981Z,35.60
2018-03-17T19:27:38.049Z,36.53
2018-03-17T19:30:08.088Z,36.75
2018-03-17T19:32:41.373Z,29.57
2018-03-17T19:35:13.956Z,33.15
2018-03-17T19:37:43.075Z,35.08
2018-03-17T19:40:12.235Z,34.00
2018-03-17T19:42:45.115Z,28.43
2018-03-17T19:45:14.760Z,35.28
2018-03-17T19:47:45.878Z,27.07
2018-03-17T19:50:15.341Z,34.92
2018-03-17T19:52:45.164Z,35.08
2018-03-17T19:57:55.042Z,34.55
2018-03-17T20:00:26.623Z,33.78
2018-03-17T20:03:00.597Z,26.97
2018-03-17T20:05:31.237Z,33.67
2018-03-17T20:08:04.279Z,35.90
2018-03-17T20:10:34.067Z,37.53
2018-03-17T20:13:08.301Z,31.60
2018-03-17T20:15:37.736Z,34.53
2018-03-17T20:18:07.751Z,35.33
2018-03-17T20:20:38.264Z,28.67
2018-03-17T20:23:09.391Z,33.55
2018-03-17T20:25:39.677Z,26.53
2018-03-17T20:28:11.309Z,34.08
2018-03-17T20:30:40.616Z,25.67
2018-03-17T20:33:09.910Z,28.60
2018-03-17T20:35:42.642Z,22.30
2018-03-17T20:38:12.636Z,25.20
2018-03-17T20:40:43.835Z,21.53
2018-03-17T20:43:15.428Z,27.35
2018-03-17T20:45:49.613Z,25.92
2018-03-17T20:48:23.351Z,24.60
2018-03-17T20:50:57.086Z,26.20
2018-03-17T20:58:39.784Z,28.17
2018-03-17T21:03:45.356Z,26.48
2018-03-17T21:08:51.265Z,36.17
2018-03-17T21:11:21.283Z,28.62
2018-03-17T21:13:54.661Z,22.57
2018-03-17T21:16:26.474Z,27.10
2018-03-17T21:19:01.508Z,21.50
2018-03-17T21:24:08.680Z,30.70
2018-03-17T21:26:38.127Z,22.20
2018-03-17T21:31:43.872Z,27.42
2018-03-17T21:36:48.332Z,27.42
2018-03-17T21:39:21.583Z,26.75
2018-03-17T21:41:53.103Z,22.53
2018-03-17T21:44:26.987Z,27.60
2018-03-17T21:47:00.351Z,23.47
2018-03-17T21:49:31.674Z,28.33
2018-03-17T21:52:00.720Z,32.15
2018-03-17T21:57:16.939Z,30.35
2018-03-17T22:02:35.818Z,28.55
2018-03-17T22:05:06.489Z,30.98
2018-03-17T22:07:35.601Z,33.17
2018-03-17T22:10:05.725Z,31.40
2018-03-17T22:12:34.788Z,33.13
2018-03-17T22:15:04.228Z,32.55
2018-03-17T22:20:11.474Z,32.63
2018-03-17T22:22:40.603Z,33.90
2018-03-17T22:25:11.682Z,32.25
2018-03-17T22:27:40.721Z,27.90
2018-03-17T22:30:13.478Z,28.65
2018-03-17T22:32:42.537Z,31.02
2018-03-17T22:35:11.912Z,25.13
2018-03-17T22:37:40.994Z,30.17
2018-03-17T22:40:10.077Z,31.08
2018-03-17T22:42:39.444Z,23.77
2018-03-17T22:45:09.054Z,32.40
2018-03-17T22:47:38.893Z,29.33
2018-03-17T22:50:08.439Z,34.00
2018-03-17T22:52:38.756Z,34.78
2018-03-17T22:55:17.091Z,29.30
2018-03-17T22:57:46.189Z,35.55
2018-03-17T23:00:16.192Z,37.47
2018-03-17T23:02:45.445Z,30.23
2018-03-17T23:07:50.325Z,36.28
2018-03-17T23:10:20.477Z,28.60
2018-03-17T23:12:49.554Z,33.80
2018-03-17T23:15:36.938Z,35.38
2018-03-17T23:18:06.331Z,30.50
2018-03-17T23:20:36.299Z,33.63
2018-03-17T23:23:05.362Z,36.38
2018-03-17T23:25:34.428Z,31.37
2018-03-17T23:28:04.379Z,34.95
2018-03-17T23:30:33.448Z,29.83
2018-03-17T23:33:07.486Z,36.33
2018-03-17T23:35:36.568Z,34.95
2018-03-17T23:40:43.844Z,33.85
2018-03-17T23:43:18.585Z,35.00
2018-03-17T23:45:47.754Z,31.47
2018-03-17T23:48:16.830Z,32.60
2018-03-17T23:50:45.895Z,34.97
2018-03-17T23:55:57.471Z,34.33
